aviador You're here:

KMJX Decoded Metar

in _UNIDENTIFIED
Report Time2017-09-20 06:56:00
UTC Time2017-09-20 07:40:42
Flight Rules mvfr MVFR
Wind360° at 12 Gusting to 18 kt
W.Decomp.*RWY 06: 7.9 kt HW 9.1 kt LCW
Visibility9999 m
Phenomena:N/A
Clouds:Overcast 021 Hf
Expected CloudBase > 1,200 ft AGL from Temp-Dew spread
Ceiling2,100 ft
Temp22°C (ISA +7)
Dew Point19°C (83% RH)
AAT20.9°C
QNH1009 hPa
Density Alt1,342 ft
Elevation82 ft
Report Wrong Elevation
Raw Report
METAR KMJX 200656Z AUTO 36012G18KT 10SM OVC021 22/19 A2980 RMK AO2
SLP096 T02170189=

Extra information for KMJX:More info

Metar Taf Metar & Taf Last 4 Metars F.Rules Stats Wind Profile Meteogram Temp Stats Metar ALERT Operation Metar Decoded Social comments